| time (UTC) | temp C | wind direction | speed KPH | gust KPH | rain 1hr cm | rain 24hr cm | rain mn cm | humidity % | barometer mb |
| 20260906083047 | 22 | 34 | 3.2 | 6.4 | 0.00 | 0.00 | 0.00 | 97 | 1012.4 |
| 20260906081547 | 22 | 322 | 3.2 | 8.0 | 0.00 | 0.00 | 0.00 | 98 | 1012.1 |
| 20260906080049 | 22 | 0 | 0.0 | 1.6 | 0.00 | 0.00 | 0.00 | 98 | 1012.0 |
| 20260906074551 | 22 | 263 | 0.0 | 6.4 | 0.00 | 0.00 | 0.00 | 98 | 1011.9 |
| 20260906073048 | 22 | 321 | 3.2 | 6.4 | 0.00 | 0.00 | 0.00 | 98 | 1011.9 |
| 20260906071558 | 22 | 0 | 0.0 | 3.2 | 0.00 | 0.00 | 0.00 | 97 | 1012.1 |
| 20260906070050 | 22 | 30 | 0.0 | 4.8 | 0.00 | 0.00 | 0.00 | 97 | 1012.2 |
| 20260906064547 | 22 | 210 | 1.6 | 4.8 | 0.00 | 0.00 | 0.00 | 97 | 1012.0 |
| 20260906063053 | 22 | 0 | 0.0 | 3.2 | 0.00 | 0.00 | 0.00 | 96 | 1012.1 |
| 20260906061542 | 22 | 211 | 0.0 | 4.8 | 0.00 | 0.00 | 0.00 | 96 | 1012.6 |
| 20260906060051 | 22 | 257 | 0.0 | 4.8 | 0.00 | 0.00 | 0.00 | 96 | 1012.9 |
| 20260906054549 | 22 | 280 | 0.0 | 4.8 | 0.00 | 0.00 | 0.00 | 95 | 1013.1 |
| 20260906053053 | 23 | 323 | 3.2 | 6.4 | 0.00 | 0.00 | 0.00 | 95 | 1013.1 |
| 20260906051551 | 23 | 0 | 0.0 | 4.8 | 0.00 | 0.00 | 0.00 | 95 | 1013.2 |
| 20260906050048 | 23 | 306 | 0.0 | 6.4 | 0.00 | 0.00 | 0.00 | 95 | 1013.4 |
| 20260906044543 | 23 | 345 | 3.2 | 6.4 | 0.00 | 0.00 | 0.00 | 94 | 1013.4 |
| 20260906043049 | 23 | 0 | 0.0 | 1.6 | 0.00 | 0.00 | 0.00 | 94 | 1013.3 |
| 20260906041548 | 23 | 69 | 0.0 | 4.8 | 0.00 | 0.00 | 0.00 | 94 | 1013.3 |
| 20260906040047 | 23 | 15 | 3.2 | 8.0 | 0.00 | 0.00 | 0.00 | 93 | 1013.4 |
| 20260906034553 | 23 | 284 | 1.6 | 4.8 | 0.00 | 0.00 | 0.00 | 93 | 1013.3 |
| 20260906033048 | 23 | 0 | 0.0 | 6.4 | 0.00 | 0.00 | 0.00 | 92 | 1013.4 |
| 20260906031554 | 23 | 313 | 1.6 | 4.8 | 0.00 | 0.00 | 0.00 | 91 | 1013.5 |
| 20260906030054 | 23 | 277 | 1.6 | 4.8 | 0.00 | 0.00 | 0.00 | 90 | 1013.5 |
| 20260906024601 | 23 | 269 | 0.0 | 3.2 | 0.00 | 0.00 | 0.00 | 88 | 1013.4 |
| 20260906023053 | 23 | 184 | 1.6 | 6.4 | 0.00 | 0.00 | 0.00 | 88 | 1013.4 |
| 20260906021553 | 23 | 216 | 3.2 | 6.4 | 0.00 | 0.00 | 0.00 | 88 | 1013.3 |
| 20260906020051 | 24 | 23 | 1.6 | 4.8 | 0.00 | 0.00 | 0.00 | 86 | 1012.9 |
| 20260906014600 | 25 | 0 | 0.0 | 3.2 | 0.00 | 0.00 | 0.00 | 85 | 1013.0 |
| 20260906013055 | 25 | 0 | 0.0 | 4.8 | 0.00 | 0.00 | 0.00 | 84 | 1013.3 |
| 20260906011553 | 25 | 211 | 0.0 | 6.4 | 0.00 | 0.00 | 0.00 | 84 | 1013.3 |
| 20260906010051 | 25 | 0 | 0.0 | 0.0 | 0.00 | 0.00 | 0.00 | 85 | 1013.1 |
| 20260906004548 | 25 | 0 | 0.0 | 0.0 | 0.00 | 0.00 | 0.00 | 84 | 1012.8 |
| 20260906003105 | 25 | 190 | 0.0 | 4.8 | 0.00 | 0.00 | 0.00 | 83 | 1012.5 |
| 20260906001545 | 26 | 0 | 0.0 | 4.8 | 0.00 | 0.00 | 0.00 | 80 | 1011.9 |
| 20260906000055 | 26 | 63 | 1.6 | 8.0 | 0.00 | 0.00 | 0.00 | 79 | 1012.0 |
| 20260905234547 | 27 | 333 | 3.2 | 11.3 | 0.00 | 0.00 | 0.00 | 78 | 1012.3 |
| 20260905233046 | 27 | 317 | 3.2 | 9.7 | 0.00 | 0.00 | 0.00 | 73 | 1012.1 |
| 20260905231546 | 27 | 98 | 3.2 | 8.0 | 0.00 | 0.00 | 0.00 | 73 | 1011.8 |
| 20260905230051 | 27 | 0 | 0.0 | 0.0 | 0.00 | 0.00 | 0.00 | 72 | 1012.1 |
| 20260905224547 | 27 | 0 | 0.0 | 0.0 | 0.00 | 0.00 | 0.00 | 72 | 1012.1 |
| 20260905223043 | 27 | 0 | 0.0 | 3.2 | 0.00 | 0.00 | 0.00 | 71 | 1012.0 |
| 20260905221545 | 27 | 24 | 3.2 | 8.0 | 0.00 | 0.00 | 0.00 | 71 | 1012.3 |
| 20260905220048 | 27 | 109 | 4.8 | 12.9 | 0.00 | 0.00 | 0.00 | 71 | 1012.3 |
| 20260905214545 | 28 | 111 | 6.4 | 14.5 | 0.00 | 0.00 | 0.00 | 71 | 1012.3 |
| 20260905213054 | 28 | 56 | 6.4 | 9.7 | 0.00 | 0.00 | 0.00 | 68 | 1012.3 |
| 20260905211546 | 28 | 0 | 0.0 | 6.4 | 0.00 | 0.00 | 0.00 | 67 | 1012.6 |
| 20260905210042 | 28 | 0 | 3.2 | 9.7 | 0.00 | 0.00 | 0.00 | 68 | 1012.5 |
| 20260905204550 | 27 | 317 | 1.6 | 12.9 | 0.00 | 0.00 | 0.00 | 71 | 1013.0 |
| 20260905203054 | 27 | 300 | 9.7 | 14.5 | 0.00 | 0.00 | 0.00 | 71 | 1013.2 |
| 20260905201545 | 26 | 37 | 8.0 | 22.5 | 0.00 | 0.00 | 0.00 | 73 | 1013.0 |
| 20260905200052 | 26 | 103 | 14.5 | 32.2 | 0.00 | 0.00 | 0.00 | 72 | 1012.5 |
| 20260905194550 | 30 | 67 | 17.7 | 33.8 | 0.00 | 0.00 | 0.00 | 62 | 1012.9 |
| 20260905193100 | 32 | 49 | 22.5 | 51.5 | 0.00 | 0.00 | 0.00 | 51 | 1012.8 |
| 20260905191549 | 36 | 67 | 6.4 | 12.9 | 0.00 | 0.00 | 0.00 | 47 | 1012.1 |
| 20260905190043 | 37 | 49 | 3.2 | 9.7 | 0.00 | 0.00 | 0.00 | 45 | 1012.1 |
| 20260905184551 | 37 | 59 | 3.2 | 16.1 | 0.00 | 0.00 | 0.00 | 44 | 1011.9 |
| 20260905183046 | 36 | 252 | 4.8 | 16.1 | 0.00 | 0.00 | 0.00 | 46 | 1012.2 |
| 20260905181548 | 36 | 42 | 3.2 | 16.1 | 0.00 | 0.00 | 0.00 | 47 | 1012.3 |
| 20260905180058 | 36 | 333 | 3.2 | 9.7 | 0.00 | 0.00 | 0.00 | 47 | 1012.8 |
| 20260905174549 | 36 | 308 | 1.6 | 12.9 | 0.00 | 0.00 | 0.00 | 49 | 1013.0 |
| 20260905173051 | 35 | 178 | 8.0 | 22.5 | 0.00 | 0.00 | 0.00 | 50 | 1013.2 |
| 20260905171543 | 35 | 122 | 8.0 | 14.5 | 0.00 | 0.00 | 0.00 | 53 | 1013.1 |
| 20260905170057 | 35 | 204 | 6.4 | 12.9 | 0.00 | 0.00 | 0.00 | 53 | 1013.2 |
| 20260905164548 | 35 | 280 | 4.8 | 9.7 | 0.00 | 0.00 | 0.00 | 54 | 1013.7 |
| 20260905163043 | 34 | 336 | 4.8 | 12.9 | 0.00 | 0.00 | 0.00 | 56 | 1014.1 |
| 20260905161551 | 33 | 187 | 3.2 | 12.9 | 0.00 | 0.00 | 0.00 | 58 | 1014.3 |
| 20260905160052 | 33 | 346 | 4.8 | 12.9 | 0.00 | 0.00 | 0.00 | 60 | 1014.3 |
| 20260905154545 | 32 | 281 | 4.8 | 12.9 | 0.00 | 0.00 | 0.00 | 60 | 1014.4 |
| 20260905153041 | 32 | 303 | 3.2 | 11.3 | 0.00 | 0.00 | 0.00 | 65 | 1014.5 |
| 20260905151552 | 31 | 265 | 8.0 | 12.9 | 0.00 | 0.00 | 0.00 | 67 | 1014.7 |
| 20260905150056 | 31 | 304 | 6.4 | 12.9 | 0.00 | 0.00 | 0.00 | 68 | 1015.0 |
| 20260905144547 | 31 | 248 | 4.8 | 8.0 | 0.00 | 0.00 | 0.00 | 71 | 1014.9 |
| 20260905143055 | 30 | 352 | 1.6 | 8.0 | 0.00 | 0.00 | 0.00 | 73 | 1014.8 |
| 20260905141549 | 28 | 19 | 3.2 | 11.3 | 0.00 | 0.00 | 0.00 | 76 | 1015.0 |
| 20260905140058 | 28 | 288 | 6.4 | 12.9 | 0.00 | 0.00 | 0.00 | 78 | 1015.1 |
| 20260905134558 | 27 | 333 | 3.2 | 11.3 | 0.00 | 0.00 | 0.00 | 82 | 1015.4 |
| 20260905133050 | 27 | 260 | 6.4 | 11.3 | 0.00 | 0.00 | 0.00 | 84 | 1015.3 |
| 20260905131551 | 26 | 269 | 4.8 | 11.3 | 0.00 | 0.00 | 0.00 | 86 | 1015.2 |
| 20260905130048 | 25 | 272 | 3.2 | 9.7 | 0.00 | 0.00 | 0.00 | 89 | 1015.2 |
| 20260905124554 | 25 | 0 | 1.6 | 9.7 | 0.00 | 0.00 | 0.00 | 91 | 1015.1 |
| 20260905123051 | 24 | 275 | 1.6 | 6.4 | 0.00 | 0.00 | 0.00 | 93 | 1015.1 |
| 20260905121545 | 23 | 0 | 1.6 | 6.4 | 0.00 | 0.00 | 0.00 | 95 | 1015.3 |
| 20260905120043 | 23 | 249 | 0.0 | 3.2 | 0.00 | 0.00 | 0.00 | 96 | 1015.0 |
| 20260905114549 | 23 | 192 | 3.2 | 4.8 | 0.00 | 0.00 | 0.00 | 96 | 1014.8 |
| 20260905113043 | 23 | 327 | 0.0 | 4.8 | 0.00 | 0.00 | 0.00 | 96 | 1014.4 |
| 20260905111600 | 23 | 315 | 0.0 | 3.2 | 0.00 | 0.00 | 0.00 | 96 | 1014.4 |
| 20260905110049 | 23 | 0 | 0.0 | 4.8 | 0.00 | 0.00 | 0.00 | 96 | 1014.2 |
| 20260905104548 | 23 | 0 | 0.0 | 4.8 | 0.00 | 0.00 | 0.00 | 97 | 1014.2 |
| 20260905103042 | 23 | 295 | 0.0 | 4.8 | 0.00 | 0.00 | 0.00 | 97 | 1014.2 |
| 20260905101552 | 23 | 284 | 0.0 | 4.8 | 0.00 | 0.00 | 0.00 | 97 | 1013.9 |
| 20260905100100 | 23 | 0 | 0.0 | 4.8 | 0.00 | 0.00 | 0.00 | 97 | 1014.1 |
| 20260905094547 | 23 | 232 | 0.0 | 3.2 | 0.00 | 0.00 | 0.00 | 97 | 1014.1 |
| 20260905093043 | 23 | 0 | 0.0 | 0.0 | 0.00 | 0.00 | 0.00 | 97 | 1014.1 |
| 20260905091542 | 23 | 0 | 0.0 | 0.0 | 0.00 | 0.00 | 0.00 | 97 | 1013.9 |
| 20260905090048 | 23 | 0 | 0.0 | 0.0 | 0.00 | 0.00 | 0.00 | 97 | 1013.9 |
| 20260905084550 | 23 | 0 | 0.0 | 0.0 | 0.00 | 0.00 | 0.00 | 97 | 1014.2 |